Time;durP1;ratioP1;P1;durP2;ratioP2;P2;SDS_P1;SDS_P2;PMS_P1;PMS_P2;Temp;Humidity;BMP_temperature;BMP_pressure;BME280_temperature;BME280_humidity;BME280_pressure;Samples;Min_cycle;Max_cycle;Signal;HPM_P1;HPM_P2
2022/03/27 00:03:33;;;;;;;8.45;7.75;;;;;;;8.42;72.90;101473.78;10379755;28;20076;-68
2022/03/27 00:08:35;;;;;;;10.13;9.27;;;;;;;8.52;74.06;101471.16;10378930;28;20454;-68
2022/03/27 00:13:37;;;;;;;10.85;9.90;;;;;;;8.44;74.32;101482.50;10378962;28;20046;-68
2022/03/27 00:18:38;;;;;;;9.52;8.73;;;;;;;8.51;74.51;101489.50;10377299;28;20120;-68
2022/03/27 00:23:40;;;;;;;9.50;8.68;;;;;;;8.44;74.77;101504.34;10378561;28;20037;-67
2022/03/27 00:28:43;;;;;;;10.07;9.27;;;;;;;8.53;74.95;101493.84;10377919;28;20411;-67
2022/03/27 00:33:46;;;;;;;10.23;9.43;;;;;;;8.56;74.60;101511.34;10377788;28;20042;-67
2022/03/27 00:38:47;;;;;;;11.32;10.32;;;;;;;8.42;74.79;101500.84;10378324;28;20506;-68
2022/03/27 00:43:49;;;;;;;11.00;10.10;;;;;;;8.45;75.11;101498.22;10377425;28;20482;-67
2022/03/27 00:48:50;;;;;;;10.40;9.60;;;;;;;8.36;74.61;101498.19;10377009;28;20092;-68
2022/03/27 00:53:52;;;;;;;11.75;10.75;;;;;;;8.59;74.30;101498.25;10378194;28;20037;-67
2022/03/27 00:58:53;;;;;;;11.75;10.75;;;;;;;8.16;75.99;101499.94;10377656;28;20042;-68
2022/03/27 01:03:55;;;;;;;11.23;10.32;;;;;;;7.99;76.58;101494.66;10376343;28;20103;-68
2022/03/27 01:14:32;;;;;;;11.25;10.23;;;;;;;7.96;77.19;101498.13;10377677;28;20046;-68
2022/03/27 01:19:43;;;;;;;11.02;10.02;;;;;;;7.56;78.56;101503.22;10376323;28;20100;-73
2022/03/27 01:24:46;;;;;;;10.57;9.68;;;;;;;7.50;78.82;101499.72;10375940;28;20411;-68
2022/03/27 01:29:47;;;;;;;10.50;9.60;;;;;;;7.43;79.09;101492.72;10375904;28;20100;-68
2022/03/27 01:34:49;;;;;;;10.82;10.02;;;;;;;7.44;79.06;101494.47;10376435;28;20041;-66
2022/03/27 01:39:51;;;;;;;11.05;10.13;;;;;;;7.58;78.64;101498.91;10375566;28;20100;-68
2022/03/27 01:44:52;;;;;;;11.90;10.90;;;;;;;7.88;77.33;101481.56;10375408;28;20065;-68
2022/03/27 01:49:54;;;;;;;12.00;11.10;;;;;;;7.71;78.28;101483.25;10375930;28;20439;-68
2022/03/27 01:54:55;;;;;;;12.20;11.10;;;;;;;7.84;77.83;101485.03;10375068;28;20496;-67
2022/03/27 01:59:57;;;;;;;12.60;11.60;;;;;;;7.81;78.03;101477.16;10375014;28;20049;-67
2022/03/27 02:05:00;;;;;;;11.38;10.48;;;;;;;7.33;79.09;101486.56;10374761;28;20041;-68
2022/03/27 02:10:03;;;;;;;12.85;11.77;;;;;;;7.44;79.39;101484.88;10374107;28;20108;-67
2022/03/27 02:15:07;;;;;;;11.40;10.50;;;;;;;6.95;79.79;101484.63;10373438;28;20046;-67
2022/03/27 02:20:09;;;;;;;12.75;11.65;;;;;;;6.98;79.74;101484.63;10381797;28;20049;-67
2022/03/27 02:25:10;;;;;;;14.45;13.13;;;;;;;7.03;80.91;101490.75;10381672;28;20037;-67
2022/03/27 02:30:15;;;;;;;12.57;11.55;;;;;;;7.17;79.52;101489.97;10382735;28;20069;-68
2022/03/27 02:35:16;;;;;;;13.75;12.65;;;;;;;6.85;81.39;101492.38;10382411;28;20049;-67
2022/03/27 02:40:18;;;;;;;12.52;11.45;;;;;;;6.59;82.05;101485.22;10383849;28;20054;-67
2022/03/27 02:45:20;;;;;;;12.13;11.07;;;;;;;6.77;80.45;101485.38;10381427;28;20492;-68
2022/03/27 02:50:22;;;;;;;12.02;11.02;;;;;;;6.65;81.06;101484.41;10383236;28;20052;-68
2022/03/27 02:55:24;;;;;;;12.65;11.60;;;;;;;6.34;82.07;101502.44;10393064;23;20108;-68
2022/03/27 03:00:26;;;;;;;13.07;11.98;;;;;;;6.37;81.18;101489.41;10382234;28;20100;-68
2022/03/27 03:05:27;;;;;;;13.02;11.93;;;;;;;6.31;80.94;101494.59;10383949;28;20072;-68
2022/03/27 03:10:29;;;;;;;12.70;11.70;;;;;;;5.89;82.28;101505.44;10382552;28;20058;-68
2022/03/27 03:15:31;;;;;;;12.50;11.30;;;;;;;5.82;84.13;101509.72;10383536;28;20565;-67
2022/03/27 03:20:32;;;;;;;13.18;12.07;;;;;;;5.97;82.53;101499.47;10382529;28;20685;-67
2022/03/27 03:25:39;;;;;;;13.05;11.98;;;;;;;5.87;82.68;101509.75;10385721;28;20048;-68
2022/03/27 03:31:00;;;;;;;13.38;12.02;;;;;;;5.80;82.02;101506.22;10381994;28;20381;-67
2022/03/27 03:36:02;;;;;;;13.85;12.73;;;;;;;5.38;84.42;101511.78;10382151;28;20656;-68
2022/03/27 03:41:04;;;;;;;12.35;11.35;;;;;;;5.35;84.47;101515.22;10381559;28;20056;-68
2022/03/27 03:46:06;;;;;;;14.15;12.98;;;;;;;5.41;83.80;101507.50;10383951;28;20041;-68
2022/03/27 03:51:07;;;;;;;13.48;12.32;;;;;;;5.53;82.88;101515.47;10384239;28;20076;-68
2022/03/27 03:56:09;;;;;;;12.30;11.30;;;;;;;5.36;83.88;101509.16;10381345;28;20046;-68
2022/03/27 04:01:11;;;;;;;13.30;12.20;;;;;;;5.07;84.31;101514.84;10380439;28;20056;-68
2022/03/27 04:06:13;;;;;;;13.15;11.95;;;;;;;5.13;84.08;101516.66;10380659;28;20045;-68
2022/03/27 04:11:17;;;;;;;12.15;11.20;;;;;;;5.04;83.91;101522.59;10382141;28;20050;-68
2022/03/27 04:16:18;;;;;;;13.30;12.30;;;;;;;5.01;85.03;101525.19;10381001;28;20042;-70
2022/03/27 04:21:20;;;;;;;13.82;12.70;;;;;;;4.99;84.82;101523.41;10380293;28;20424;-68
2022/03/27 04:26:22;;;;;;;13.18;12.10;;;;;;;4.85;85.40;101531.00;10381249;28;20041;-68
2022/03/27 04:31:23;;;;;;;14.80;13.40;;;;;;;4.77;85.01;101528.28;10381381;28;20057;-68
2022/03/27 04:36:25;;;;;;;14.85;13.55;;;;;;;4.86;85.82;101539.69;10381094;28;20089;-67
2022/03/27 04:41:26;;;;;;;14.25;12.98;;;;;;;4.68;86.13;101550.69;10379443;28;20041;-68
2022/03/27 04:46:28;;;;;;;13.95;12.85;;;;;;;4.44;87.72;101551.19;10380602;28;20042;-68
2022/03/27 04:51:31;;;;;;;14.10;12.90;;;;;;;4.38;86.52;101545.84;10382864;28;20101;-67
2022/03/27 04:56:32;;;;;;;14.07;12.98;;;;;;;4.37;87.65;101544.97;10380592;28;20132;-67
2022/03/27 05:01:34;;;;;;;13.65;12.50;;;;;;;4.36;86.95;101538.00;10381405;28;20406;-67
2022/03/27 05:06:36;;;;;;;14.23;13.13;;;;;;;4.31;87.75;101547.47;10380277;28;20114;-67
2022/03/27 05:11:38;;;;;;;13.32;12.23;;;;;;;4.10;88.82;101547.06;10378572;28;20046;-67
2022/03/27 05:16:40;;;;;;;14.32;13.13;;;;;;;4.21;87.10;101542.97;10380297;28;20042;-68
2022/03/27 05:21:42;;;;;;;14.02;12.82;;;;;;;4.24;86.45;101554.28;10379444;28;20083;-66
2022/03/27 05:26:43;;;;;;;13.55;12.43;;;;;;;4.39;86.38;101550.22;10379683;28;20041;-68
2022/03/27 05:31:45;;;;;;;12.77;11.77;;;;;;;4.21;86.39;101566.38;10378234;28;20050;-67
2022/03/27 05:36:47;;;;;;;14.25;12.85;;;;;;;4.51;86.35;101571.25;10381583;28;20053;-67
2022/03/27 05:41:49;;;;;;;13.10;12.00;;;;;;;4.78;84.91;101569.13;10377668;28;20050;-68
2022/03/27 05:46:51;;;;;;;13.32;12.23;;;;;;;4.97;84.00;101562.47;10377383;28;20499;-67
2022/03/27 05:51:53;;;;;;;14.05;12.95;;;;;;;4.91;85.52;101571.91;10380268;28;20096;-68
2022/03/27 05:56:54;;;;;;;14.02;12.80;;;;;;;5.09;85.23;101571.31;10380334;28;20037;-67
2022/03/27 06:01:56;;;;;;;13.70;12.60;;;;;;;5.31;86.11;101569.06;10378776;28;20415;-67
2022/03/27 06:07:02;;;;;;;15.57;14.18;;;;;;;6.21;86.11;101561.50;10377123;28;20050;-68
2022/03/27 06:12:07;;;;;;;11.90;10.95;;;;;;;8.18;75.65;101547.94;10378219;28;20466;-67
2022/03/27 06:17:09;;;;;;;11.52;10.65;;;;;;;9.38;66.84;101551.44;10379308;28;20056;-67
2022/03/27 06:22:11;;;;;;;12.45;11.48;;;;;;;9.09;67.38;101555.00;10378649;28;20057;-68
2022/03/27 06:27:14;;;;;;;11.45;10.55;;;;;;;9.31;66.45;101561.97;10378684;28;20068;-68
2022/03/27 06:32:15;;;;;;;13.32;12.32;;;;;;;9.20;66.96;101562.84;10378957;28;20046;-69
2022/03/27 06:37:17;;;;;;;12.05;11.05;;;;;;;9.08;68.45;101564.63;10376732;28;20054;-67
2022/03/27 06:42:19;;;;;;;13.20;12.20;;;;;;;9.17;66.04;101565.50;10380503;28;20491;-68
2022/03/27 06:47:24;;;;;;;13.50;12.50;;;;;;;8.58;69.07;101568.13;10377520;28;20393;-68
2022/03/27 06:52:34;;;;;;;13.18;11.40;;;;;;;8.44;70.79;101567.22;10380471;28;20054;-68
2022/03/27 06:57:37;;;;;;;13.77;12.83;;;;;;;8.11;72.21;101565.41;10364069;28;20046;-68
2022/03/27 07:03:24;;;;;;;14.35;13.25;;;;;;;8.07;73.67;101561.88;10384773;28;20115;-68
2022/03/27 07:08:01;;;;;;;14.73;13.43;;;;;;;8.14;73.19;101557.53;10382126;28;20088;-67
2022/03/27 07:13:05;;;;;;;14.07;12.98;;;;;;;8.29;74.17;101541.84;10385881;28;20042;-69
2022/03/27 07:18:08;;;;;;;12.73;11.57;;;;;;;8.46;72.77;101541.06;10385525;28;20080;-68
2022/03/27 07:23:13;;;;;;;13.20;12.23;;;;;;;9.09;70.96;101544.53;10386942;28;20042;-68
2022/03/27 07:28:18;;;;;;;11.68;10.80;;;;;;;9.39;69.24;101540.09;10390320;28;20069;-68
2022/03/27 07:33:21;;;;;;;12.20;11.20;;;;;;;9.29;68.73;101541.84;10388914;28;20076;-68
2022/03/27 07:38:24;;;;;;;12.80;11.88;;;;;;;9.06;70.67;101552.38;10387802;28;20042;-68
2022/03/27 07:43:32;;;;;;;11.70;10.73;;;;;;;9.52;68.53;101555.78;10400978;28;20046;-68
2022/03/27 07:48:35;;;;;;;11.80;10.80;;;;;;;9.62;68.70;101547.88;10388963;28;20042;-67
2022/03/27 07:53:37;;;;;;;12.00;11.10;;;;;;;9.72;68.18;101550.44;10383127;28;20487;-68
2022/03/27 07:58:39;;;;;;;11.02;10.13;;;;;;;10.29;67.23;101564.22;10382026;28;20053;-67
2022/03/27 08:03:41;;;;;;;11.48;10.48;;;;;;;10.16;66.28;101552.00;10383535;28;20050;-67
2022/03/27 08:08:43;;;;;;;10.02;9.32;;;;;;;10.60;65.76;101556.97;10400021;28;20046;-67
2022/03/27 08:13:46;;;;;;;10.80;10.00;;;;;;;10.84;65.05;101553.25;10381938;28;20052;-68
2022/03/27 08:18:47;;;;;;;10.85;9.82;;;;;;;11.05;63.14;101559.25;10383181;28;20038;-68
2022/03/27 08:23:49;;;;;;;10.95;9.95;;;;;;;11.00;63.85;101567.16;10384543;28;20400;-68
2022/03/27 08:28:51;;;;;;;10.05;9.32;;;;;;;11.64;61.23;101562.97;10383591;28;20068;-67
2022/03/27 08:33:52;;;;;;;10.63;9.73;;;;;;;11.47;62.21;101562.34;10380885;28;20042;-67
2022/03/27 08:38:55;;;;;;;10.48;9.68;;;;;;;12.13;59.41;101562.41;10380920;28;20057;-68
2022/03/27 08:44:00;;;;;;;10.10;9.38;;;;;;;12.31;58.36;101561.28;10381064;28;20049;-67
2022/03/27 08:49:31;;;;;;;9.20;8.50;;;;;;;12.75;56.16;101571.16;10381941;28;20065;-67
2022/03/27 08:54:58;;;;;;;10.05;9.30;;;;;;;12.50;56.53;101578.56;10375169;28;20132;-68
2022/03/27 09:00:00;;;;;;;9.52;8.75;;;;;;;12.57;56.60;101572.31;10391512;23;20069;-70
2022/03/27 09:05:05;;;;;;;8.73;8.13;;;;;;;12.92;53.52;101565.56;10361922;28;20046;-70
2022/03/27 09:10:09;;;;;;;7.70;7.20;;;;;;;13.32;50.58;101564.88;10360196;28;20454;-70
2022/03/27 09:15:12;;;;;;;7.90;7.30;;;;;;;13.69;51.76;101556.28;10378295;28;20096;-70
2022/03/27 09:20:14;;;;;;;7.70;7.10;;;;;;;14.19;49.45;101549.00;10377194;28;20068;-70
2022/03/27 09:25:15;;;;;;;8.15;7.55;;;;;;;14.27;48.58;101550.59;10377094;28;20050;-72
2022/03/27 09:30:17;;;;;;;8.27;7.57;;;;;;;13.95;49.42;101548.66;10376041;28;20046;-70
2022/03/27 09:35:21;;;;;;;8.30;7.70;;;;;;;13.72;49.59;101548.25;10377214;28;20079;-70
2022/03/27 09:40:22;;;;;;;8.05;7.45;;;;;;;14.56;48.75;101533.16;10375657;28;20049;-71
2022/03/27 09:45:24;;;;;;;7.82;7.22;;;;;;;14.83;47.74;101532.50;10375799;28;20049;-72
2022/03/27 09:50:37;;;;;;;8.20;7.60;;;;;;;15.48;46.85;101525.47;10375795;28;20052;-70
2022/03/27 09:55:39;;;;;;;8.43;7.72;;;;;;;15.62;45.58;101520.63;10375952;28;20053;-71
2022/03/27 10:00:42;;;;;;;8.23;7.63;;;;;;;15.75;44.95;101529.13;10374531;28;20136;-72
2022/03/27 10:06:04;;;;;;;8.52;7.93;;;;;;;15.67;44.45;101521.44;10375312;28;20046;-71
2022/03/27 10:11:06;;;;;;;7.82;7.22;;;;;;;15.75;45.16;101513.22;10376482;28;20054;-71
2022/03/27 10:16:10;;;;;;;8.65;8.02;;;;;;;15.35;44.14;101517.00;10375392;28;20046;-71
2022/03/27 10:21:12;;;;;;;7.57;6.88;;;;;;;16.20;44.88;101504.78;10375634;28;20084;-70
2022/03/27 10:26:14;;;;;;;8.75;8.15;;;;;;;16.10;42.66;101499.75;10373565;28;20037;-71
2022/03/27 10:31:18;;;;;;;8.85;8.25;;;;;;;15.91;42.99;101498.59;10375818;28;20054;-71
2022/03/27 10:36:58;;;;;;;8.30;7.63;;;;;;;16.18;45.28;101490.69;10375764;28;20038;-72
2022/03/27 10:42:08;;;;;;;6.88;6.38;;;;;;;16.73;41.72;101486.25;10298666;28;20066;-71
2022/03/27 10:47:21;;;;;;;6.90;6.40;;;;;;;16.97;40.64;101480.09;10298395;28;20177;-71
2022/03/27 10:52:23;;;;;;;7.22;6.72;;;;;;;16.95;40.04;101473.09;10298036;28;20082;-71
2022/03/27 10:57:32;;;;;;;6.88;6.38;;;;;;;16.86;39.26;101475.13;10298138;28;20054;-71
2022/03/27 11:02:47;;;;;;;6.25;5.85;;;;;;;17.26;40.61;101457.78;10298048;28;20150;-71
2022/03/27 11:07:49;;;;;;;5.72;5.32;;;;;;;17.75;35.83;101461.28;10297769;28;20055;-71
2022/03/27 11:12:50;;;;;;;5.38;4.97;;;;;;;17.69;36.93;101456.16;10308762;28;20057;-71
2022/03/27 11:18:10;;;;;;;5.30;4.90;;;;;;;17.84;37.15;101463.59;10382127;28;20053;-73
2022/03/27 11:23:23;;;;;;;5.55;5.15;;;;;;;18.07;34.48;101452.03;10382803;28;20057;-71
2022/03/27 11:28:26;;;;;;;4.72;4.43;;;;;;;17.97;36.27;101444.47;10379899;28;20061;-70
2022/03/27 11:33:30;;;;;;;5.47;4.97;;;;;;;18.00;34.93;101447.00;10381793;28;20127;-71
2022/03/27 11:38:52;;;;;;;4.15;3.85;;;;;;;17.64;33.52;101442.19;10380100;28;20045;-72
2022/03/27 11:43:55;;;;;;;3.95;3.65;;;;;;;17.77;32.27;101431.97;10349488;28;20050;-71
2022/03/27 11:48:59;;;;;;;4.32;4.00;;;;;;;17.90;34.14;101427.88;10339182;28;20046;-71
2022/03/27 11:54:02;;;;;;;3.85;3.55;;;;;;;17.92;33.63;101412.72;10338731;28;20469;-70
2022/03/27 11:59:06;;;;;;;3.72;3.42;;;;;;;18.84;32.92;101398.22;10339556;28;20034;-72
2022/03/27 12:04:08;;;;;;;4.05;3.60;;;;;;;18.89;30.29;101390.88;10338889;28;20050;-70
2022/03/27 12:09:22;;;;;;;2.88;2.65;;;;;;;18.18;29.55;101378.84;10342915;28;20043;-71
2022/03/27 12:14:26;;;;;;;2.83;2.63;;;;;;;17.79;29.57;101369.78;10340657;28;20086;-70
2022/03/27 12:19:29;;;;;;;3.08;2.80;;;;;;;17.59;30.52;101369.69;10340677;28;20066;-71
2022/03/27 12:24:43;;;;;;;3.40;3.10;;;;;;;17.26;31.10;101363.91;10340132;28;20065;-71
2022/03/27 12:29:51;;;;;;;3.38;2.97;;;;;;;16.84;32.97;101362.81;10339580;28;20054;-71
2022/03/27 12:34:55;;;;;;;2.80;2.53;;;;;;;16.53;32.02;101363.00;10339011;28;20055;-70
2022/03/27 12:40:01;;;;;;;2.55;2.35;;;;;;;16.77;31.52;101355.97;10340396;28;20241;-71
2022/03/27 12:45:08;;;;;;;3.30;2.57;;;;;;;16.28;32.60;101357.69;10339787;28;20075;-72
2022/03/27 12:50:34;;;;;;;3.33;3.03;;;;;;;16.17;32.25;101343.06;10339481;28;20668;-71
2022/03/27 12:55:47;;;;;;;3.05;2.85;;;;;;;16.12;32.83;101338.78;10338495;28;20061;-69
2022/03/27 13:01:03;;;;;;;2.20;2.00;;;;;;;16.12;32.11;101335.25;10337581;28;20409;-70
2022/03/27 13:06:07;;;;;;;3.42;2.60;;;;;;;15.92;32.90;101322.66;10338899;28;20463;-70
2022/03/27 13:11:17;;;;;;;3.05;2.75;;;;;;;15.77;32.81;101323.19;10340814;28;20492;-71
2022/03/27 13:16:29;;;;;;;2.42;2.10;;;;;;;15.65;32.29;101313.84;10337698;28;20053;-70
2022/03/27 13:21:54;;;;;;;4.18;2.65;;;;;;;15.50;32.80;101307.22;10338769;28;20042;-72
2022/03/27 13:27:00;;;;;;;3.50;2.65;;;;;;;15.61;33.76;101298.91;10353392;28;20054;-70
2022/03/27 13:32:02;;;;;;;3.50;3.07;;;;;;;15.60;34.12;101302.47;10337385;28;20073;-70
2022/03/27 13:37:05;;;;;;;3.72;3.03;;;;;;;15.68;33.48;101296.97;10338351;28;20046;-70
2022/03/27 13:47:28;;;;;;;4.13;3.80;;;;;;;15.51;35.46;101300.13;10337996;28;20046;-71
2022/03/27 13:52:29;;;;;;;4.32;3.92;;;;;;;15.62;34.12;101285.59;10337008;28;20384;-69
2022/03/27 13:57:32;;;;;;;4.70;4.13;;;;;;;15.47;34.65;101279.94;10352795;28;20073;-72
2022/03/27 14:02:35;;;;;;;4.80;4.28;;;;;;;15.38;36.68;101273.16;10337551;28;20046;-69
2022/03/27 14:07:37;;;;;;;5.00;4.55;;;;;;;15.35;37.19;101268.81;10335872;28;20101;-71
2022/03/27 14:12:41;;;;;;;6.70;6.20;;;;;;;15.48;36.39;101266.63;10338376;28;20513;-70
2022/03/27 14:17:47;;;;;;;4.88;4.47;;;;;;;15.35;36.80;101262.66;10345223;28;20042;-71
2022/03/27 14:22:49;;;;;;;5.10;4.70;;;;;;;15.54;36.70;101261.16;10345202;28;20053;-72
2022/03/27 14:27:51;;;;;;;5.00;4.50;;;;;;;15.66;36.66;101251.06;10343735;28;20056;-70
2022/03/27 14:32:52;;;;;;;5.35;4.85;;;;;;;15.36;36.92;101246.72;10345668;28;20046;-70
2022/03/27 14:37:54;;;;;;;5.47;4.97;;;;;;;15.48;36.11;101250.72;10344147;28;20042;-71
2022/03/27 14:42:56;;;;;;;5.40;5.00;;;;;;;15.28;36.98;101246.09;10358481;28;20054;-70
2022/03/27 14:47:58;;;;;;;4.70;4.40;;;;;;;15.33;37.33;101240.66;10343319;28;20342;-71
2022/03/27 14:53:00;;;;;;;5.82;4.93;;;;;;;15.26;37.75;101241.75;10341637;28;20062;-71
2022/03/27 14:58:05;;;;;;;5.53;5.13;;;;;;;15.30;38.30;101238.09;10342973;28;20043;-69
2022/03/27 15:03:08;;;;;;;6.50;5.95;;;;;;;15.20;38.36;101228.72;10342646;28;20050;-68
2022/03/27 15:08:10;;;;;;;6.22;5.45;;;;;;;15.12;38.68;101231.59;10343566;28;20053;-69
2022/03/27 15:13:12;;;;;;;6.38;5.95;;;;;;;15.04;38.75;101218.59;10344608;28;20046;-69
2022/03/27 15:18:14;;;;;;;5.68;5.28;;;;;;;14.91;38.65;101213.72;10343295;28;20053;-69
2022/03/27 15:23:16;;;;;;;6.30;5.80;;;;;;;14.99;38.49;101223.16;10342277;28;20444;-69
2022/03/27 15:28:18;;;;;;;5.28;4.78;;;;;;;14.96;38.39;101207.38;10341323;28;20074;-69
2022/03/27 15:33:19;;;;;;;6.00;5.50;;;;;;;14.86;37.79;101206.78;10379237;28;20507;-69
2022/03/27 15:38:21;;;;;;;6.00;5.50;;;;;;;14.81;38.64;101207.84;10380582;28;20054;-68
2022/03/27 15:43:22;;;;;;;5.05;4.65;;;;;;;14.86;38.52;101198.84;10382035;28;20107;-68
2022/03/27 15:48:24;;;;;;;5.22;4.25;;;;;;;14.75;38.29;101194.81;10386207;28;20045;-70
2022/03/27 15:53:29;;;;;;;5.82;5.32;;;;;;;14.55;39.56;101190.09;10383803;28;20514;-69
2022/03/27 15:58:32;;;;;;;7.57;6.97;;;;;;;14.70;40.34;101196.72;10382913;28;20042;-69
2022/03/27 16:03:35;;;;;;;7.05;6.53;;;;;;;14.56;40.99;101197.13;10381232;28;20069;-68
2022/03/27 16:08:39;;;;;;;5.68;5.28;;;;;;;14.49;41.15;101193.81;10365385;28;20050;-69
2022/03/27 16:13:41;;;;;;;6.38;5.80;;;;;;;14.34;40.74;101196.84;10382706;28;20050;-68
2022/03/27 16:18:43;;;;;;;5.70;5.30;;;;;;;14.28;41.22;101191.75;10384616;28;20052;-69
2022/03/27 16:23:45;;;;;;;6.50;6.00;;;;;;;14.19;41.33;101189.38;10379181;28;20525;-68
2022/03/27 16:28:52;;;;;;;6.60;6.10;;;;;;;14.09;41.55;101192.28;10363035;28;20065;-69
2022/03/27 16:33:53;;;;;;;6.22;5.80;;;;;;;14.08;41.65;101185.25;10381429;28;20052;-69
2022/03/27 16:38:56;;;;;;;5.70;5.30;;;;;;;13.91;42.22;101202.50;10381885;28;20034;-69
2022/03/27 16:43:57;;;;;;;6.35;5.65;;;;;;;13.95;42.17;101191.78;10380757;28;20116;-69
2022/03/27 16:49:01;;;;;;;6.47;5.88;;;;;;;13.71;43.29;101197.72;10380676;28;20069;-70
2022/03/27 16:54:03;;;;;;;7.38;6.78;;;;;;;13.60;44.13;101190.94;10384052;28;20041;-68
2022/03/27 16:59:06;;;;;;;7.70;7.10;;;;;;;13.36;45.05;101191.56;10381663;28;20398;-69
2022/03/27 17:04:08;;;;;;;8.18;7.38;;;;;;;13.32;46.05;101200.44;10382763;28;20575;-68
2022/03/27 17:09:09;;;;;;;7.50;6.80;;;;;;;13.12;46.65;101196.50;10381540;28;20096;-69
2022/03/27 17:14:14;;;;;;;7.55;6.85;;;;;;;13.06;47.06;101194.03;10381840;28;20551;-68
2022/03/27 17:19:17;;;;;;;9.02;8.27;;;;;;;12.84;47.67;101200.69;10380806;28;20045;-68
2022/03/27 17:24:27;;;;;;;8.95;8.15;;;;;;;12.72;48.09;101206.25;10378047;28;20046;-69
2022/03/27 17:29:31;;;;;;;8.35;7.55;;;;;;;12.49;48.71;101209.38;10377644;28;20046;-68
2022/03/27 17:34:33;;;;;;;8.57;7.88;;;;;;;12.41;48.59;101203.38;10378602;28;20099;-68
2022/03/27 17:39:36;;;;;;;8.68;8.00;;;;;;;12.38;48.92;101209.56;10379438;28;20048;-69
2022/03/27 17:44:40;;;;;;;7.68;7.07;;;;;;;12.57;48.67;101216.22;10381061;28;20041;-68
2022/03/27 17:49:42;;;;;;;8.00;7.30;;;;;;;12.43;49.08;101209.47;10384317;28;20038;-68
2022/03/27 17:54:50;;;;;;;9.98;9.07;;;;;;;12.34;48.93;101213.16;10385501;28;20562;-68
2022/03/27 17:59:52;;;;;;;9.35;8.55;;;;;;;12.14;49.56;101225.91;10379873;28;20041;-68
2022/03/27 18:04:55;;;;;;;9.02;8.18;;;;;;;11.89;50.38;101223.69;10380874;28;20053;-68
2022/03/27 18:09:57;;;;;;;8.55;7.95;;;;;;;12.02;51.76;101219.94;10380434;28;20045;-69
2022/03/27 18:14:59;;;;;;;9.63;8.63;;;;;;;11.69;52.37;101224.03;10380420;28;20050;-69
2022/03/27 18:20:01;;;;;;;10.88;7.55;;;;;;;11.41;53.65;101231.50;10379428;28;20042;-69
2022/03/27 18:25:03;;;;;;;8.57;7.85;;;;;;;11.20;54.22;101230.09;10377656;28;20108;-68
2022/03/27 18:30:06;;;;;;;10.20;9.20;;;;;;;11.24;54.44;101236.16;10377996;28;20050;-69
2022/03/27 18:35:08;;;;;;;9.85;8.95;;;;;;;11.04;54.65;101237.34;10378568;28;20050;-68
2022/03/27 18:40:11;;;;;;;9.60;8.70;;;;;;;11.00;54.64;101235.66;10381801;28;20104;-69
2022/03/27 18:45:14;;;;;;;9.65;8.77;;;;;;;10.66;55.87;101239.63;10381846;28;20046;-69
2022/03/27 18:50:16;;;;;;;8.77;8.07;;;;;;;10.46;56.49;101239.88;10377741;28;20096;-68
2022/03/27 18:55:18;;;;;;;9.13;8.23;;;;;;;10.32;56.57;101232.16;10377961;28;20064;-68
2022/03/27 19:00:23;;;;;;;8.80;8.00;;;;;;;10.13;56.55;101241.97;10383948;28;20056;-69
2022/03/27 19:05:25;;;;;;;9.50;8.60;;;;;;;9.99;57.04;101241.25;10389046;28;20046;-68
2022/03/27 19:10:29;;;;;;;8.52;7.72;;;;;;;9.88;57.13;101243.97;10389262;28;20061;-68
2022/03/27 19:15:31;;;;;;;9.52;8.73;;;;;;;10.04;57.17;101247.31;10386871;28;20081;-69
2022/03/27 19:20:36;;;;;;;10.20;9.30;;;;;;;10.02;56.81;101251.72;10387264;28;20049;-68
2022/03/27 19:25:43;;;;;;;10.10;9.25;;;;;;;9.92;56.65;101248.31;10387903;28;20060;-68
2022/03/27 19:30:50;;;;;;;8.50;7.80;;;;;;;9.49;57.54;101253.94;10386102;28;20412;-68
2022/03/27 19:35:52;;;;;;;9.32;8.50;;;;;;;9.31;57.96;101249.69;10385108;28;20042;-67
2022/03/27 19:40:55;;;;;;;9.93;9.05;;;;;;;9.12;58.37;101247.19;10369061;28;20046;-68
2022/03/27 19:45:57;;;;;;;12.43;8.10;;;;;;;9.07;58.76;101241.97;10384938;28;20054;-69
2022/03/27 19:50:59;;;;;;;10.20;9.30;;;;;;;8.97;59.07;101228.06;10383450;28;20034;-68
2022/03/27 19:56:01;;;;;;;10.30;9.45;;;;;;;8.87;59.46;101243.88;10383968;28;20056;-70
2022/03/27 20:01:03;;;;;;;10.18;9.27;;;;;;;8.79;59.54;101239.53;10364278;28;20130;-68
2022/03/27 20:06:05;;;;;;;10.50;9.38;;;;;;;8.71;60.30;101243.06;10384231;28;20041;-68
2022/03/27 20:11:08;;;;;;;11.77;10.77;;;;;;;8.66;60.70;101237.84;10388823;28;20065;-68
2022/03/27 20:16:10;;;;;;;11.65;10.75;;;;;;;8.64;60.85;101231.75;10387342;28;20053;-68
2022/03/27 20:21:12;;;;;;;11.68;10.68;;;;;;;8.72;60.50;101231.69;10366624;28;20045;-68
2022/03/27 20:26:16;;;;;;;11.02;10.13;;;;;;;8.66;60.92;101234.34;10384006;28;20050;-70
2022/03/27 20:31:17;;;;;;;10.32;9.52;;;;;;;8.66;60.92;101226.50;10383539;28;20105;-68
2022/03/27 20:36:19;;;;;;;11.10;10.18;;;;;;;8.83;60.59;101219.41;10385037;28;20073;-68
2022/03/27 20:41:24;;;;;;;11.63;10.50;;;;;;;8.71;61.51;101224.72;10383578;28;20068;-69
2022/03/27 20:46:27;;;;;;;10.85;9.95;;;;;;;8.65;61.64;101225.63;10382506;28;20050;-68
2022/03/27 20:51:30;;;;;;;10.25;9.35;;;;;;;8.61;61.50;101226.50;10379754;28;20069;-67
2022/03/27 20:56:31;;;;;;;11.82;10.88;;;;;;;8.63;61.67;101222.13;10380469;28;20104;-69
2022/03/27 21:01:34;;;;;;;11.82;10.82;;;;;;;8.50;61.91;101225.69;10379971;28;20053;-69
2022/03/27 21:06:35;;;;;;;11.45;10.50;;;;;;;8.42;61.92;101224.88;10377247;28;20084;-70
2022/03/27 21:11:37;;;;;;;11.23;10.32;;;;;;;8.31;62.44;101215.25;10378218;28;20049;-68
2022/03/27 21:16:39;;;;;;;12.18;11.18;;;;;;;8.46;63.21;101216.97;10379389;28;20463;-68
2022/03/27 21:21:41;;;;;;;11.90;10.90;;;;;;;8.29;63.88;101216.13;10377273;28;20045;-68
2022/03/27 21:26:43;;;;;;;11.88;10.85;;;;;;;8.30;63.39;101216.13;10377368;28;20042;-68
2022/03/27 21:31:46;;;;;;;11.98;10.85;;;;;;;7.96;63.98;101219.72;10377299;28;20045;-69
2022/03/27 21:36:52;;;;;;;12.95;11.60;;;;;;;7.76;64.29;101225.88;10376958;28;20440;-69
2022/03/27 21:41:57;;;;;;;12.35;11.35;;;;;;;7.81;65.40;101220.63;10377742;28;20084;-69
2022/03/27 21:47:00;;;;;;;13.05;11.85;;;;;;;8.02;64.67;101220.59;10375795;28;20049;-68
2022/03/27 21:52:06;;;;;;;12.73;11.55;;;;;;;7.80;65.84;101211.91;10376287;28;20045;-70
2022/03/27 21:57:08;;;;;;;12.80;11.60;;;;;;;7.84;65.58;101218.00;10376800;28;20176;-69
2022/03/27 22:02:10;;;;;;;12.60;11.50;;;;;;;7.48;66.59;101209.31;10376113;28;20042;-70
2022/03/27 22:07:11;;;;;;;13.75;12.35;;;;;;;7.66;66.94;101213.66;10375769;28;20103;-68
2022/03/27 22:12:19;;;;;;;13.32;12.13;;;;;;;7.37;67.00;101213.66;10376463;28;20054;-70
2022/03/27 22:17:20;;;;;;;13.45;12.20;;;;;;;7.27;67.54;101211.94;10376839;28;20041;-71
2022/03/27 22:22:22;;;;;;;13.70;12.30;;;;;;;7.29;67.93;101208.44;10376038;28;20042;-70
2022/03/27 22:27:23;;;;;;;13.77;12.52;;;;;;;7.20;68.65;101197.09;10375090;28;20054;-70
2022/03/27 22:32:25;;;;;;;12.00;10.90;;;;;;;7.04;68.46;101191.00;10375319;28;20045;-69
2022/03/27 22:37:28;;;;;;;13.07;11.88;;;;;;;7.14;68.72;101189.25;10382402;28;20042;-69
2022/03/27 22:42:29;;;;;;;13.00;11.77;;;;;;;7.15;68.97;101183.16;10382277;28;20050;-69
2022/03/27 22:47:31;;;;;;;12.38;11.23;;;;;;;7.07;69.05;101181.38;10381553;28;20052;-69
2022/03/27 22:52:32;;;;;;;11.20;10.20;;;;;;;7.02;68.94;101184.88;10381162;28;20053;-70
2022/03/27 22:57:34;;;;;;;11.48;10.57;;;;;;;6.68;69.30;101178.72;10382962;28;20097;-70
2022/03/27 23:02:36;;;;;;;11.38;10.38;;;;;;;7.02;69.15;101175.28;10381202;28;20042;-71
2022/03/27 23:07:39;;;;;;;11.45;10.45;;;;;;;6.75;69.83;101170.91;10382066;28;20046;-69
2022/03/27 23:12:40;;;;;;;10.32;9.40;;;;;;;6.66;69.72;101168.25;10382047;28;20054;-70
2022/03/27 23:17:42;;;;;;;10.32;9.52;;;;;;;6.50;69.80;101167.34;10380919;28;20050;-69
2022/03/27 23:22:46;;;;;;;11.82;10.82;;;;;;;6.39;70.29;101160.34;10382175;28;20053;-69